Historyczne dane pomiarowe

Dodano dane terminowe – wersja testowa.

Dane z okresu 1951-2019

Wersja bazy: 1.34 [2019-03-16, lista zmian], aktualizacja planowana na 2019-04-15

Dane meteo z obszaru Polski uzyskane na podstawie danych udostępnionych przez Instytut Meteorologii i Gospodarki Wodnej – Państwowy Instytut Badawczy.

 

Wybierz Datę:    

       

TemperaturaWilgotnośćWiatrCiśnienieOpadyŚniegCzas trwania zjawisk
 Stacja t tx tn tng RH VA  wxwx mslp ppp RRR   cm mm wxwxwxwxwxwxwx
1999-08-14 16.4 21.7 10.8 9.8 67.0- 6.7 3.3---- 0.0------------
1999-08-13 17.2 21.9 14.0 13.1 68.0- 5.7 2.7---- 0.0------------
1999-08-12 17.4 21.2 13.4 11.9 63.0- 5.7 3.7---- 0.0------------
1999-08-11 20.8 26.6 16.2 14.9 74.8- 3.3 4.3---- 0.0------------
1999-08-10 21.1 28.2 15.3 14.0 72.0- 6.7 2.0---- 1.6------------
1999-08-09 23.5 30.0 18.1 16.9 63.0- 6.0 3.7---- 0.0------------
1999-08-08 21.5 28.2 16.5 16.7 89.0- 5.3 1.3---- 0.0------------
1999-08-07 22.4 30.1 13.8 11.8 57.0- 2.7 2.7---- 13.8------------
1999-08-06 20.8 27.2 13.9 12.8 64.3- 4.3 1.3---- 0.0------------
1999-08-05 20.5 28.7 11.4 9.5 46.5- 2.3 2.0---- 0.0------------
1999-08-04 19.2 27.0 10.5 8.7 50.8- 3.3 2.0---- 0.0------------
1999-08-03 19.9 27.0 11.2 9.0 42.8- 2.3 2.0---- 0.0------------
1999-08-02 20.2 27.3 12.8 10.1 41.8- 3.3 3.0---- 0.0------------
1999-08-01 19.6 26.4 12.9 9.8 46.3- 4.7 2.7---- 0.0------------
1999-07-31 21.3 28.0 13.7 11.4 44.0- 1.0 4.0---- 0.0------------
1999-07-30 20.7 26.6 13.5 11.4 51.5- 1.3 2.7---- 0.0------------
1999-07-29 19.9 26.2 12.7 10.5 53.0- 1.7 3.0---- 0.0------------
1999-07-28 18.3 23.4 13.4 11.3 72.8- 5.3 3.7---- 0.6------------
1999-07-27 19.8 25.1 15.4 15.3 60.8- 3.3 2.7---- 0.0------------
1999-07-26 21.9 28.6 14.0 12.6 64.3- 2.3 2.7---- 0.0------------
1999-07-25 20.2 26.7 12.3 9.9 59.8- 3.3 2.3---- 0.0------------
1999-07-24 19.4 24.0 14.1 12.1 70.5- 3.3 2.7---- 0.0------------
1999-07-23 17.5 21.3 12.7 11.6 61.5- 7.7 1.3---- 0.0------------
1999-07-22 20.8 25.5 17.1 16.0 58.0- 6.0 3.7---- 0.0------------
1999-07-21 23.9 30.0 17.7 15.4 58.3- 4.0 3.3---- 0.3------------
1999-07-20 23.2 30.7 14.3 12.2 58.8- 1.0 2.3---- 0.0------------
1999-07-19 23.6 30.1 17.0 14.6 53.8- 5.3 3.3---- 0.0------------
1999-07-18 20.6 26.6 11.9 10.0 58.3- 4.7 1.3---- 0.0------------
1999-07-17 18.5 24.5 10.4 8.5 57.3- 2.3 2.0---- 0.0------------
1999-07-16 16.5 21.1 11.1 9.2 72.5- 4.7 3.0---- 0.0------------
1999-07-15 17.5 22.1 12.7 11.9 80.0- 6.0 4.0---- 0.5------------
1999-07-14 21.5 27.7 17.6 16.4 75.8- 6.3 3.3---- 11.8------------
1999-07-13 22.7 29.7 16.3 14.7 60.8- 5.7 3.0---- 0.0------------
1999-07-12 22.4 28.4 14.7 11.4 46.8- 6.0 4.0---- 0.0------------
1999-07-11 21.3 27.5 13.2 9.8 50.5- 0.7 3.0---- 0.0------------
1999-07-10 21.1 25.8 15.0 13.4 53.5- 0.3 2.7---- 0.0------------
1999-07-09 20.0 25.8 14.2 14.5 76.0- 4.7 3.0---- 0.0------------
1999-07-08 18.9 22.1 16.2 15.5 88.0- 7.0 3.0---- 13.2------------
1999-07-07 22.6 29.0 18.9 19.1 78.8- 8.0 1.7---- 0.0------------
1999-07-06 26.6 33.2 19.0 16.5 55.5- 3.0 2.3---- 0.0------------
1999-07-05 27.4 34.5 19.6 19.0 54.5- 1.3 2.0---- 0.0------------
1999-07-04 24.7 31.8 14.3 12.1 52.8- 1.3 3.0---- 0.0------------
1999-07-03 21.7 26.9 14.4 12.7 65.5- 4.3 1.7---- 0.0------------
1999-07-02 20.5 25.0 16.1 14.2 74.3- 5.0 3.3---- 0.0------------
1999-07-01 20.9 26.5 12.2 10.4 50.8- 4.0 1.3---- 0.0------------
1999-06-30 20.1 25.7 12.4 10.4 59.5- 3.7 1.3---- 0.0------------
1999-06-29 20.9 25.8 15.7 13.4 64.3- 4.3 2.0---- 0.0------------
1999-06-28 22.1 29.7 12.0 9.5 56.5- 3.3 2.0---- 0.0------------
1999-06-27 20.2 26.4 12.3 9.1 54.5- 1.7 3.7---- 0.0------------
1999-06-26 16.2 22.4 7.6 6.0 63.3- 4.0 2.3---- 0.0------------
1999-06-25 14.4 18.1 10.8 9.3 67.5- 4.0 2.3---- 0.1------------
1999-06-24 13.0 15.7 10.8 9.9 86.8- 7.0 1.7---- 1.5------------
1999-06-23 11.7 13.6 10.6 9.8 95.8- 8.0 3.7---- 17.8------------
1999-06-22 14.5 18.1 12.6 12.2 90.3- 8.0 4.0---- 7.2------------
1999-06-21 18.4 23.4 14.4 13.0 86.0- 7.3 2.3---- 22.1------------
1999-06-20 19.6 24.2 15.9 15.5 82.8- 7.3 2.3---- 0.0------------
1999-06-19 21.0 26.7 15.0 14.3 76.5- 4.0 2.3---- 0.0------------
1999-06-18 17.7 20.9 16.0 16.0 93.5- 7.3 2.3---- 15.0------------
1999-06-17 19.2 21.4 16.5 15.9 89.5- 7.3 1.3---- 43.2------------
1999-06-16 19.9 22.9 17.4 17.4 91.5- 7.3 1.7---- 6.3------------
894.3 ms

 

Źródłem pochodzenia danych jest Instytut Meteorologii i Gospodarki Wodnej – Państwowy Instytut Badawczy. Dane Instytutu Meteorologii i Gospodarki Wodnej – Państwowego Instytutu Badawczego zostały przetworzone.

Dane źródłowe można odnaleźć na stronie https://dane.imgw.pl